Time;durP1;ratioP1;P1;durP2;ratioP2;P2;SDS_P1;SDS_P2;PMS_P1;PMS_P2;Temp;Humidity;BMP_temperature;BMP_pressure;BME280_temperature;BME280_humidity;BME280_pressure;Samples;Min_cycle;Max_cycle;Signal;HPM_P1;HPM_P2
2022/12/19 00:03:06;;;;;;;48.43;35.40;;;1.50;99.90;;;;;;10363753;28;20223;-80
2022/12/19 00:08:14;;;;;;;46.70;34.77;;;1.60;99.90;;;;;;10369518;28;20208;-81
2022/12/19 00:13:16;;;;;;;48.67;33.60;;;1.60;99.90;;;;;;10322259;28;20230;-81
2022/12/19 00:18:19;;;;;;;45.93;34.33;;;1.70;99.90;;;;;;10369030;28;20225;-80
2022/12/19 00:23:22;;;;;;;45.40;34.23;;;1.80;99.90;;;;;;10396495;28;20194;-80
2022/12/19 00:28:24;;;;;;;47.47;35.43;;;1.90;99.90;;;;;;10370340;28;20225;-80
2022/12/19 00:33:26;;;;;;;42.33;32.80;;;1.90;99.70;;;;;;10387259;28;20219;-80
2022/12/19 00:38:30;;;;;;;43.77;35.53;;;1.90;99.70;;;;;;10368195;28;20591;-80
2022/12/19 00:43:32;;;;;;;52.17;37.10;;;1.90;99.90;;;;;;10379287;28;20202;-80
2022/12/19 00:48:35;;;;;;;42.17;33.33;;;1.80;99.90;;;;;;10364109;28;20313;-80
2022/12/19 00:53:39;;;;;;;43.17;32.27;;;1.80;99.90;;;;;;10363847;28;20226;-81
2022/12/19 00:58:42;;;;;;;45.87;34.87;;;1.90;99.90;;;;;;10345042;28;20214;-80
2022/12/19 01:03:44;;;;;;;44.30;32.63;;;1.90;99.90;;;;;;10360120;28;20194;-80
2022/12/19 01:08:49;;;;;;;48.23;34.90;;;1.80;99.90;;;;;;10349753;28;20222;-80
2022/12/19 01:13:51;;;;;;;43.57;33.63;;;1.80;99.90;;;;;;10362438;28;20211;-80
2022/12/19 01:18:53;;;;;;;43.80;34.80;;;1.90;99.90;;;;;;10383614;28;20249;-80
2022/12/19 01:23:56;;;;;;;43.60;32.90;;;2.10;99.90;;;;;;10365914;28;20562;-80
2022/12/19 01:28:58;;;;;;;42.53;32.17;;;2.10;99.90;;;;;;10372383;28;20206;-80
2022/12/19 01:34:02;;;;;;;45.30;34.70;;;2.10;99.90;;;;;;10383119;28;20237;-79
2022/12/19 01:39:06;;;;;;;43.27;32.80;;;2.20;99.90;;;;;;10324322;28;20229;-79
2022/12/19 01:44:08;;;;;;;44.70;34.80;;;2.20;99.90;;;;;;10344200;28;20233;-80
2022/12/19 01:49:15;;;;;;;47.30;34.67;;;2.20;99.90;;;;;;10373988;28;20215;-80
2022/12/19 01:54:22;;;;;;;45.83;33.87;;;2.20;99.90;;;;;;10375862;28;20217;-80
2022/12/19 01:59:29;;;;;;;43.83;32.57;;;2.20;99.90;;;;;;10357766;28;20289;-79
2022/12/19 02:04:32;;;;;;;46.07;33.43;;;2.10;99.90;;;;;;10354983;28;20233;-80
2022/12/19 02:09:37;;;;;;;44.50;32.80;;;2.10;99.90;;;;;;10341852;28;20245;-79
2022/12/19 02:14:40;;;;;;;43.00;33.33;;;2.20;99.90;;;;;;10358132;28;20221;-79
2022/12/19 02:20:21;;;;;;;45.10;31.40;;;2.20;99.90;;;;;;10358576;28;20667;-80
2022/12/19 02:25:49;;;;;;;43.47;32.10;;;2.20;99.90;;;;;;10354960;28;20194;-79
2022/12/19 02:31:04;;;;;;;45.50;33.23;;;2.30;99.90;;;;;;10299333;28;20236;-80
2022/12/19 02:36:16;;;;;;;40.97;32.70;;;2.40;99.90;;;;;;10358530;28;20281;-79
2022/12/19 02:41:23;;;;;;;43.37;33.77;;;2.40;99.90;;;;;;10364658;28;20218;-80
2022/12/19 02:46:27;;;;;;;44.77;33.80;;;2.50;99.90;;;;;;10343875;28;20206;-80
2022/12/19 02:51:30;;;;;;;43.63;34.50;;;2.60;99.90;;;;;;10359137;28;20210;-80
2022/12/19 02:56:42;;;;;;;48.27;36.17;;;2.60;99.90;;;;;;10377971;28;20607;-80
2022/12/19 03:01:50;;;;;;;48.63;34.47;;;2.70;99.90;;;;;;10359591;28;20233;-80
2022/12/19 03:07:01;;;;;;;45.90;35.10;;;2.80;99.90;;;;;;10354419;28;20329;-80
2022/12/19 03:12:14;;;;;;;47.30;35.80;;;2.80;99.90;;;;;;10355266;28;20214;-80
2022/12/19 03:17:18;;;;;;;46.27;35.33;;;2.80;99.90;;;;;;10338906;28;20230;-80
2022/12/19 03:22:21;;;;;;;53.17;37.40;;;2.80;99.90;;;;;;10358344;28;20211;-80
2022/12/19 03:27:28;;;;;;;51.37;36.63;;;2.80;99.90;;;;;;10380137;28;20620;-80
2022/12/19 03:32:34;;;;;;;53.83;39.97;;;2.90;99.90;;;;;;10360673;28;20222;-80
2022/12/19 03:37:39;;;;;;;50.07;35.67;;;2.90;99.90;;;;;;10345261;28;20202;-80
2022/12/19 03:48:09;;;;;;;45.20;34.33;;;2.90;99.90;;;;;;10382309;28;20561;-80
2022/12/19 03:53:23;;;;;;;44.30;34.43;;;2.90;99.90;;;;;;10383048;28;20257;-80
2022/12/19 03:58:31;;;;;;;44.97;33.97;;;2.90;99.90;;;;;;10350769;28;20257;-80
2022/12/19 04:03:36;;;;;;;49.27;33.80;;;2.90;99.90;;;;;;10366376;28;20191;-80
2022/12/19 04:08:39;;;;;;;45.60;35.27;;;3.00;99.90;;;;;;10369941;28;20226;-80
2022/12/19 04:13:45;;;;;;;45.23;36.13;;;3.00;99.90;;;;;;10367670;28;20301;-80
2022/12/19 04:18:55;;;;;;;48.40;36.17;;;3.10;99.90;;;;;;10355799;28;20272;-80
2022/12/19 04:24:02;;;;;;;45.33;33.67;;;3.10;99.90;;;;;;10364803;28;20191;-80
2022/12/19 04:29:07;;;;;;;38.90;31.90;;;3.10;99.90;;;;;;10349425;28;20222;-80
2022/12/19 04:34:11;;;;;;;41.10;32.40;;;3.10;99.90;;;;;;10380098;28;20211;-80
2022/12/19 04:39:13;;;;;;;42.80;34.23;;;3.10;99.90;;;;;;10335403;28;20234;-80
2022/12/19 04:44:15;;;;;;;43.80;35.20;;;3.10;99.90;;;;;;10401494;28;20195;-80
2022/12/19 04:49:18;;;;;;;44.13;34.00;;;3.10;99.90;;;;;;10341780;28;20223;-80
2022/12/19 04:54:21;;;;;;;43.90;34.10;;;3.20;99.90;;;;;;10376064;28;20218;-80
2022/12/19 04:59:24;;;;;;;43.30;32.90;;;3.20;99.90;;;;;;10375882;28;20218;-80
2022/12/19 05:04:27;;;;;;;43.03;33.97;;;3.10;99.90;;;;;;10374526;28;20206;-80
2022/12/19 05:09:29;;;;;;;41.30;33.50;;;3.20;99.90;;;;;;10365268;28;20596;-80
2022/12/19 05:14:31;;;;;;;42.20;32.97;;;3.20;99.90;;;;;;10379832;28;20277;-80
2022/12/19 05:19:35;;;;;;;43.63;33.57;;;3.20;99.90;;;;;;10384450;28;20679;-79
2022/12/19 05:24:37;;;;;;;44.70;34.37;;;3.30;99.90;;;;;;10359237;28;20194;-80
2022/12/19 05:29:39;;;;;;;44.37;33.90;;;3.30;99.90;;;;;;10377603;28;20234;-80
2022/12/19 05:34:42;;;;;;;45.10;30.97;;;3.20;99.90;;;;;;10373253;28;20216;-79
2022/12/19 05:39:44;;;;;;;42.07;32.00;;;3.20;99.90;;;;;;10349590;28;20309;-80
2022/12/19 05:44:46;;;;;;;41.10;32.03;;;3.30;99.90;;;;;;10377230;28;20531;-79
2022/12/19 05:49:50;;;;;;;42.60;34.77;;;3.30;99.90;;;;;;10376308;28;20219;-80
2022/12/19 05:54:52;;;;;;;37.30;29.40;;;3.30;99.90;;;;;;10390834;28;20511;-79
2022/12/19 05:59:54;;;;;;;41.30;32.00;;;3.30;99.90;;;;;;10379568;28;20226;-80
2022/12/19 06:04:57;;;;;;;38.70;31.30;;;3.40;99.90;;;;;;10369312;28;20218;-80
2022/12/19 06:10:00;;;;;;;47.10;35.10;;;3.40;99.90;;;;;;10372871;28;20222;-79
2022/12/19 06:15:02;;;;;;;43.80;33.80;;;3.40;99.90;;;;;;10372798;28;20358;-80
2022/12/19 06:20:06;;;;;;;39.20;31.70;;;3.50;99.90;;;;;;10369050;28;20224;-80
2022/12/19 06:25:09;;;;;;;35.10;29.00;;;3.50;99.90;;;;;;10374561;28;20293;-79
2022/12/19 06:30:15;;;;;;;36.93;29.67;;;3.50;99.90;;;;;;10360037;28;20222;-80
2022/12/19 06:35:18;;;;;;;36.60;30.77;;;3.50;99.90;;;;;;10378449;28;20682;-80
2022/12/19 06:45:36;;;;;;;38.63;31.53;;;3.60;99.90;;;;;;10360559;28;20567;-80
2022/12/19 06:50:39;;;;;;;39.40;31.10;;;3.60;99.90;;;;;;10370244;28;20706;-79
2022/12/19 06:55:41;;;;;;;35.80;29.27;;;3.50;99.90;;;;;;10380935;28;20588;-79
2022/12/19 07:00:43;;;;;;;44.80;34.60;;;3.60;99.90;;;;;;10358523;28;20304;-80
2022/12/19 07:05:47;;;;;;;38.30;30.30;;;3.60;99.90;;;;;;10349703;28;20282;-80
2022/12/19 07:10:49;;;;;;;39.00;30.10;;;3.60;99.90;;;;;;10376598;28;20346;-79
2022/12/19 07:15:52;;;;;;;42.87;29.90;;;3.60;99.90;;;;;;10378428;28;20253;-80
2022/12/19 07:20:56;;;;;;;38.83;29.60;;;3.60;99.90;;;;;;10378515;28;20234;-80
2022/12/19 07:25:59;;;;;;;46.17;32.93;;;3.70;99.90;;;;;;10361180;28;20242;-80
2022/12/19 07:31:01;;;;;;;40.80;31.67;;;3.70;99.90;;;;;;10362055;28;20273;-80
2022/12/19 07:36:05;;;;;;;39.13;28.90;;;3.80;99.90;;;;;;10359091;28;20237;-80
2022/12/19 07:41:07;;;;;;;39.83;29.87;;;3.80;99.90;;;;;;10361692;28;20225;-80
2022/12/19 07:46:09;;;;;;;42.30;29.57;;;3.90;99.90;;;;;;10379608;28;20249;-80
2022/12/19 07:51:13;;;;;;;34.73;26.20;;;3.90;99.90;;;;;;10350530;28;20302;-80
2022/12/19 07:56:16;;;;;;;37.63;27.80;;;3.90;99.90;;;;;;10350039;28;20572;-80
2022/12/19 08:01:19;;;;;;;36.47;28.83;;;4.00;99.90;;;;;;10378430;28;20230;-80
2022/12/19 08:06:23;;;;;;;37.60;28.50;;;4.00;99.90;;;;;;10372034;28;20195;-79
2022/12/19 08:11:28;;;;;;;38.30;28.20;;;4.10;99.90;;;;;;10281194;28;20633;-80
2022/12/19 08:16:31;;;;;;;32.53;24.90;;;4.10;99.90;;;;;;10310912;28;20219;-79
2022/12/19 08:21:34;;;;;;;33.67;26.73;;;4.20;99.90;;;;;;10362414;28;20253;-81
2022/12/19 08:26:36;;;;;;;33.53;24.47;;;4.20;99.90;;;;;;10346505;28;20194;-79
2022/12/19 08:31:39;;;;;;;33.23;24.40;;;4.30;99.90;;;;;;10382753;28;20691;-79
2022/12/19 08:36:42;;;;;;;34.60;24.80;;;4.40;99.90;;;;;;10373344;28;20679;-79
2022/12/19 08:41:44;;;;;;;32.07;24.20;;;4.50;99.90;;;;;;10381946;28;20214;-80
2022/12/19 08:46:46;;;;;;;32.40;23.90;;;4.50;99.90;;;;;;10364001;28;20194;-79
2022/12/19 08:51:50;;;;;;;26.87;22.43;;;4.50;99.90;;;;;;10365581;28;20305;-80
2022/12/19 08:56:52;;;;;;;32.17;23.10;;;4.60;99.90;;;;;;10389654;28;20277;-80
2022/12/19 09:01:54;;;;;;;30.70;23.17;;;4.60;99.90;;;;;;10384086;28;20265;-80
2022/12/19 09:06:58;;;;;;;27.50;23.50;;;4.70;99.90;;;;;;10366025;28;20722;-80
2022/12/19 09:12:00;;;;;;;27.57;22.03;;;4.80;99.90;;;;;;10380977;28;20580;-80
2022/12/19 09:17:02;;;;;;;29.90;22.93;;;4.80;99.90;;;;;;10380314;28;20706;-80
2022/12/19 09:22:05;;;;;;;24.83;20.70;;;4.90;99.90;;;;;;10359718;28;20213;-80
2022/12/19 09:27:07;;;;;;;32.67;22.67;;;4.90;99.90;;;;;;10377780;28;20546;-80
2022/12/19 09:32:09;;;;;;;28.80;21.73;;;5.00;99.90;;;;;;10382216;28;20245;-80
2022/12/19 09:37:14;;;;;;;28.63;21.00;;;5.00;99.90;;;;;;10340628;28;20272;-80
2022/12/19 09:42:36;;;;;;;29.17;22.20;;;5.00;99.90;;;;;;10358491;28;20241;-80
2022/12/19 09:47:43;;;;;;;27.47;22.53;;;5.10;99.90;;;;;;10375415;28;20226;-80
2022/12/19 09:52:57;;;;;;;26.67;21.90;;;5.10;99.90;;;;;;10376108;28;20230;-80
2022/12/19 09:58:06;;;;;;;27.60;21.67;;;5.10;99.90;;;;;;10348493;28;20218;-80
2022/12/19 10:03:18;;;;;;;24.00;19.37;;;5.20;99.90;;;;;;10355536;28;20222;-80
2022/12/19 10:08:26;;;;;;;29.93;21.40;;;5.40;99.90;;;;;;10339137;28;20277;-81
2022/12/19 10:13:56;;;;;;;24.30;19.30;;;5.40;99.90;;;;;;10357902;28;20209;-81
2022/12/19 10:19:03;;;;;;;28.13;22.70;;;5.60;99.90;;;;;;10343360;28;20226;-81
2022/12/19 10:24:24;;;;;;;30.00;23.10;;;5.70;99.90;;;;;;10358400;28;20537;-81
2022/12/19 10:29:48;;;;;;;27.63;22.07;;;5.80;99.90;;;;;;10358786;28;20218;-81
2022/12/19 10:34:52;;;;;;;32.57;23.40;;;5.80;99.90;;;;;;10337634;28;20284;-82
2022/12/19 10:40:05;;;;;;;30.97;24.00;;;5.70;99.90;;;;;;10365863;28;20297;-82
2022/12/19 10:45:13;;;;;;;30.17;24.40;;;5.70;99.90;;;;;;10380214;28;20526;-81
2022/12/19 10:50:22;;;;;;;29.77;22.73;;;5.60;99.90;;;;;;10381799;28;20214;-81
2022/12/19 10:55:44;;;;;;;35.07;25.20;;;5.50;99.90;;;;;;10363288;28;20214;-81
2022/12/19 11:00:59;;;;;;;28.13;23.40;;;5.40;99.90;;;;;;10378989;28;20234;-81
2022/12/19 11:06:03;;;;;;;34.17;24.60;;;5.30;99.90;;;;;;10339488;28;20198;-81
2022/12/19 11:11:13;;;;;;;29.57;25.73;;;5.30;99.90;;;;;;10364117;28;20290;-81
2022/12/19 11:16:22;;;;;;;32.50;24.27;;;5.30;99.90;;;;;;10373234;28;20227;-81
2022/12/19 11:21:29;;;;;;;28.90;25.40;;;5.30;99.90;;;;;;10356819;28;20219;-81
2022/12/19 11:26:41;;;;;;;29.50;23.77;;;5.30;99.90;;;;;;10376966;28;20292;-80
2022/12/19 11:31:45;;;;;;;28.63;25.47;;;5.30;99.90;;;;;;10377662;28;20534;-81
2022/12/19 11:36:51;;;;;;;28.77;25.33;;;5.40;99.90;;;;;;10349300;28;20726;-81
2022/12/19 11:42:02;;;;;;;29.70;24.30;;;5.50;99.90;;;;;;10340957;28;20313;-81
2022/12/19 11:47:15;;;;;;;33.23;27.10;;;5.50;99.90;;;;;;10372749;28;20198;-81
2022/12/19 11:52:26;;;;;;;36.43;28.20;;;5.60;99.90;;;;;;10387046;28;20302;-81
2022/12/19 11:57:29;;;;;;;32.73;28.37;;;5.60;99.90;;;;;;10370412;28;20754;-81
2022/12/19 12:03:07;;;;;;;29.90;26.70;;;5.60;99.90;;;;;;10346950;28;20222;-81
2022/12/19 12:08:43;;;;;;;33.70;28.17;;;5.60;99.90;;;;;;10338327;28;20217;-80
2022/12/19 12:14:09;;;;;;;34.33;29.10;;;5.60;99.90;;;;;;10364907;28;20206;-80
2022/12/19 12:19:24;;;;;;;37.37;29.47;;;5.70;99.90;;;;;;10299846;28;20249;-80
2022/12/19 12:24:38;;;;;;;36.53;30.07;;;5.80;99.90;;;;;;10377333;28;20570;-81
2022/12/19 12:29:52;;;;;;;34.90;28.40;;;5.90;99.90;;;;;;10377213;28;20214;-81
2022/12/19 12:35:06;;;;;;;28.40;25.27;;;5.90;99.90;;;;;;10377916;28;20219;-81
2022/12/19 12:40:28;;;;;;;30.40;25.87;;;5.90;99.90;;;;;;10368383;28;20214;-81
2022/12/19 12:45:36;;;;;;;27.23;22.87;;;5.90;99.90;;;;;;10361327;28;20237;-81
2022/12/19 12:50:41;;;;;;;24.00;21.20;;;6.00;99.90;;;;;;10378635;28;20293;-81
2022/12/19 12:55:44;;;;;;;24.33;21.80;;;6.00;99.90;;;;;;10377700;28;20221;-81
2022/12/19 13:01:08;;;;;;;23.50;21.00;;;6.10;99.90;;;;;;10382025;28;20601;-81
2022/12/19 13:06:26;;;;;;;23.73;21.27;;;6.10;99.90;;;;;;10377773;28;20253;-82
2022/12/19 13:17:01;;;;;;;22.20;19.90;;;6.20;99.90;;;;;;10381802;28;20214;-81
2022/12/19 13:22:15;;;;;;;24.60;21.70;;;6.20;99.90;;;;;;10364320;28;20218;-82
2022/12/19 13:27:37;;;;;;;22.67;20.37;;;6.20;99.90;;;;;;10391911;28;20241;-80
2022/12/19 13:33:08;;;;;;;24.77;22.13;;;6.20;99.90;;;;;;10347777;28;20238;-81
2022/12/19 13:38:21;;;;;;;21.77;19.67;;;6.20;99.90;;;;;;10372331;28;20270;-81
2022/12/19 13:43:47;;;;;;;24.63;21.20;;;6.10;99.90;;;;;;10379670;28;20637;-81
2022/12/19 13:48:52;;;;;;;24.73;21.20;;;6.00;99.90;;;;;;10361689;28;20222;-81
2022/12/19 13:53:55;;;;;;;23.97;21.57;;;5.90;99.90;;;;;;10361984;28;20309;-80
2022/12/19 13:58:59;;;;;;;21.27;19.13;;;5.90;99.90;;;;;;10361109;28;20226;-80
2022/12/19 14:04:07;;;;;;;26.13;23.27;;;5.90;99.90;;;;;;10379791;28;20214;-81
2022/12/19 14:09:21;;;;;;;25.00;21.57;;;5.80;99.90;;;;;;10343090;28;20223;-81
2022/12/19 14:19:46;;;;;;;25.03;22.53;;;5.80;99.90;;;;;;10340643;28;20297;-80
2022/12/19 14:24:54;;;;;;;26.67;23.90;;;5.80;99.90;;;;;;10375900;28;20190;-81
2022/12/19 14:29:57;;;;;;;24.50;22.20;;;5.80;99.90;;;;;;10370720;28;20610;-80
2022/12/19 14:35:06;;;;;;;22.53;20.43;;;5.70;99.90;;;;;;10367439;28;20281;-81
2022/12/19 14:40:21;;;;;;;25.20;22.70;;;5.70;99.90;;;;;;10349700;28;20239;-81
2022/12/19 14:45:37;;;;;;;23.67;20.37;;;5.70;99.90;;;;;;10376463;28;20274;-81
2022/12/19 14:50:41;;;;;;;24.07;21.77;;;5.70;99.90;;;;;;10379300;28;20222;-81
2022/12/19 14:55:45;;;;;;;26.03;23.27;;;5.70;99.90;;;;;;10377771;28;20210;-80
2022/12/19 15:00:49;;;;;;;24.83;22.40;;;5.70;99.90;;;;;;10379693;28;20654;-80
2022/12/19 15:06:02;;;;;;;25.37;22.70;;;5.70;99.90;;;;;;10369363;28;20188;-80
2022/12/19 15:16:26;;;;;;;33.73;28.20;;;5.70;99.90;;;;;;10390208;28;20307;-80
2022/12/19 15:21:31;;;;;;;21.13;19.23;;;5.50;99.90;;;;;;10367553;28;20249;-80
2022/12/19 15:26:34;;;;;;;18.80;17.00;;;5.50;99.90;;;;;;10372092;28;20244;-80
2022/12/19 15:31:39;;;;;;;20.40;18.60;;;5.30;99.90;;;;;;10381576;28;20283;-80
2022/12/19 15:36:42;;;;;;;21.10;19.40;;;5.20;99.90;;;;;;10360502;28;20225;-80
2022/12/19 15:41:47;;;;;;;22.03;20.03;;;5.30;99.90;;;;;;10358286;28;20214;-80
2022/12/19 15:46:49;;;;;;;22.40;20.30;;;5.10;99.90;;;;;;10383615;28;20203;-81
2022/12/19 15:51:53;;;;;;;22.77;20.67;;;5.00;99.90;;;;;;10392016;28;20225;-80
2022/12/19 15:56:56;;;;;;;24.13;21.60;;;5.00;99.90;;;;;;10363074;28;20237;-80
2022/12/19 16:01:58;;;;;;;23.97;21.57;;;5.00;99.90;;;;;;10362903;28;20222;-80
2022/12/19 16:07:02;;;;;;;24.33;21.93;;;4.90;99.90;;;;;;10357821;28;20682;-79
2022/12/19 16:12:05;;;;;;;24.00;21.80;;;4.80;99.90;;;;;;10377990;28;20727;-80
2022/12/19 16:17:13;;;;;;;22.40;20.10;;;4.80;99.90;;;;;;10360037;28;20223;-78
2022/12/19 16:22:21;;;;;;;25.00;22.13;;;4.80;99.90;;;;;;10361623;28;20214;-79
2022/12/19 16:27:25;;;;;;;23.90;21.47;;;4.80;99.90;;;;;;10381100;28;20206;-79
2022/12/19 16:32:27;;;;;;;26.30;23.67;;;4.70;99.90;;;;;;10337728;28;20711;-78
2022/12/19 16:37:31;;;;;;;24.77;22.17;;;4.70;99.90;;;;;;10323457;28;20217;-79
2022/12/19 16:42:33;;;;;;;25.53;22.93;;;4.70;99.90;;;;;;10366336;28;20237;-79
2022/12/19 16:47:35;;;;;;;30.70;25.83;;;4.70;99.90;;;;;;10377719;28;20710;-79
2022/12/19 16:52:39;;;;;;;29.50;26.40;;;4.80;99.90;;;;;;10380899;28;20226;-79
2022/12/19 16:57:42;;;;;;;29.33;26.10;;;4.80;99.90;;;;;;10388090;28;20215;-78
2022/12/19 17:02:47;;;;;;;30.90;25.67;;;4.80;99.90;;;;;;10342853;28;20229;-79
2022/12/19 17:07:51;;;;;;;27.97;25.00;;;4.80;99.90;;;;;;10340227;28;20588;-80
2022/12/19 17:12:54;;;;;;;25.30;22.70;;;4.80;99.90;;;;;;10369879;28;20572;-79
2022/12/19 17:17:58;;;;;;;27.70;24.83;;;4.70;99.90;;;;;;10360982;28;20214;-79
2022/12/19 17:23:02;;;;;;;30.13;26.83;;;4.70;99.90;;;;;;10377705;28;20289;-79
2022/12/19 17:28:04;;;;;;;27.23;24.57;;;4.70;99.90;;;;;;10322691;28;20190;-80
2022/12/19 17:33:07;;;;;;;27.63;24.63;;;4.70;99.90;;;;;;10382628;28;20223;-79
2022/12/19 17:38:13;;;;;;;26.93;24.33;;;4.70;99.90;;;;;;10379855;28;20666;-79
2022/12/19 17:43:15;;;;;;;26.37;23.20;;;4.80;99.90;;;;;;10378202;28;20199;-79
2022/12/19 17:48:26;;;;;;;26.03;22.60;;;4.80;99.90;;;;;;10374827;28;20321;-79
2022/12/19 17:53:30;;;;;;;20.90;18.70;;;4.90;99.90;;;;;;10318779;28;20207;-79
2022/12/19 17:58:32;;;;;;;22.07;19.93;;;4.90;99.90;;;;;;10348712;28;20217;-79
2022/12/19 18:03:37;;;;;;;20.77;18.77;;;5.00;99.90;;;;;;10375720;28;20293;-80
2022/12/19 18:08:42;;;;;;;21.70;19.10;;;5.00;99.90;;;;;;10339828;28;20226;-80
2022/12/19 18:13:44;;;;;;;23.17;19.40;;;5.00;99.90;;;;;;10360896;28;20705;-80
2022/12/19 18:18:47;;;;;;;23.00;20.60;;;5.00;99.90;;;;;;10375211;28;20301;-79
2022/12/19 18:23:50;;;;;;;21.63;19.37;;;5.00;99.90;;;;;;10354550;28;20191;-79
2022/12/19 18:28:53;;;;;;;22.67;20.47;;;4.90;99.90;;;;;;10361056;28;20577;-79
2022/12/19 18:33:56;;;;;;;23.30;21.00;;;4.90;99.90;;;;;;10331554;28;20581;-79
2022/12/19 18:38:59;;;;;;;24.57;22.17;;;4.90;99.90;;;;;;10319175;28;20307;-79
2022/12/19 18:44:01;;;;;;;23.27;20.80;;;4.90;99.90;;;;;;10356672;28;20619;-79
2022/12/19 18:49:05;;;;;;;24.63;22.20;;;4.90;99.90;;;;;;10374207;28;20222;-79
2022/12/19 18:54:14;;;;;;;22.67;20.20;;;5.00;99.90;;;;;;10381631;28;20309;-79
2022/12/19 18:59:16;;;;;;;19.57;17.57;;;4.90;99.90;;;;;;10407277;22;20694;-79
2022/12/19 19:04:18;;;;;;;25.37;21.87;;;4.90;99.90;;;;;;10414417;28;20575;-79
2022/12/19 19:09:22;;;;;;;66.30;45.23;;;5.00;99.90;;;;;;10379476;28;20601;-79
2022/12/19 19:14:43;;;;;;;32.83;26.20;;;5.00;99.90;;;;;;10383855;28;20225;-79
2022/12/19 19:19:45;;;;;;;46.93;40.80;;;5.00;99.90;;;;;;10362882;28;20242;-77
2022/12/19 19:24:49;;;;;;;44.10;33.53;;;5.00;99.90;;;;;;10378830;28;20608;-79
2022/12/19 19:29:51;;;;;;;40.23;31.90;;;5.00;99.90;;;;;;10354578;28;20302;-77
2022/12/19 19:34:54;;;;;;;29.33;25.47;;;5.10;99.90;;;;;;10356189;28;20227;-79
2022/12/19 19:39:57;;;;;;;31.63;26.83;;;5.00;99.90;;;;;;10367971;28;20225;-77
2022/12/19 19:45:00;;;;;;;28.33;25.17;;;5.00;99.90;;;;;;10360617;28;20190;-77
2022/12/19 19:50:01;;;;;;;22.93;20.63;;;5.00;99.90;;;;;;10380286;28;20214;-77
2022/12/19 19:55:06;;;;;;;21.27;19.00;;;5.00;99.90;;;;;;10360389;28;20305;-77
2022/12/19 20:00:09;;;;;;;19.20;17.30;;;5.00;99.90;;;;;;10359118;28;20281;-77
2022/12/19 20:05:17;;;;;;;21.93;18.20;;;5.00;99.90;;;;;;10373112;28;20199;-78
2022/12/19 20:10:21;;;;;;;19.67;17.63;;;5.00;99.90;;;;;;10334971;28;20221;-78
2022/12/19 20:15:23;;;;;;;19.47;17.47;;;5.00;99.90;;;;;;10364397;28;20257;-78
2022/12/19 20:20:25;;;;;;;23.27;19.43;;;4.90;99.90;;;;;;10363327;28;20378;-77
2022/12/19 20:25:28;;;;;;;20.60;18.30;;;4.90;99.90;;;;;;10339915;28;20191;-77
2022/12/19 20:30:30;;;;;;;19.37;17.40;;;5.00;99.90;;;;;;10350899;28;20218;-78
2022/12/19 20:35:32;;;;;;;20.43;17.53;;;5.00;99.90;;;;;;10340771;28;20227;-78
2022/12/19 20:40:36;;;;;;;19.40;17.53;;;5.10;99.90;;;;;;10350334;28;20245;-78
2022/12/19 20:45:38;;;;;;;19.70;17.23;;;5.10;99.90;;;;;;10382032;28;20190;-78
2022/12/19 20:50:41;;;;;;;16.83;15.23;;;5.20;99.90;;;;;;10382908;28;20214;-78
2022/12/19 20:55:51;;;;;;;17.90;16.17;;;5.20;99.90;;;;;;10341934;28;20246;-78
2022/12/19 21:00:55;;;;;;;19.77;17.97;;;5.20;99.90;;;;;;10340266;28;20231;-78
2022/12/19 21:05:57;;;;;;;20.63;18.53;;;5.20;99.90;;;;;;10317497;28;20222;-78
2022/12/19 21:11:03;;;;;;;21.87;19.67;;;5.20;99.90;;;;;;10347901;28;20306;-78
2022/12/19 21:16:08;;;;;;;22.47;20.27;;;5.30;99.90;;;;;;10362176;28;20213;-78
2022/12/19 21:21:13;;;;;;;20.03;18.13;;;5.30;99.90;;;;;;10380239;28;20234;-78
2022/12/19 21:26:17;;;;;;;21.10;19.10;;;5.30;99.90;;;;;;10362755;28;20252;-78
2022/12/19 21:31:21;;;;;;;22.67;20.47;;;5.30;99.90;;;;;;10365638;28;20246;-78
2022/12/19 21:36:25;;;;;;;22.57;20.17;;;5.30;99.90;;;;;;10345213;28;20242;-78
2022/12/19 21:41:28;;;;;;;19.23;17.43;;;5.30;99.90;;;;;;10367062;28;20215;-78
2022/12/19 21:46:32;;;;;;;23.70;19.67;;;5.30;99.90;;;;;;10379722;28;20639;-78
2022/12/19 21:51:34;;;;;;;18.30;16.50;;;5.30;99.90;;;;;;10382732;28;20221;-79
2022/12/19 21:56:39;;;;;;;19.10;17.37;;;5.40;99.90;;;;;;10367256;28;20211;-78
2022/12/19 22:01:42;;;;;;;21.43;19.37;;;5.40;99.90;;;;;;10379836;28;20256;-78
2022/12/19 22:06:44;;;;;;;28.17;25.27;;;5.40;99.90;;;;;;10358070;28;20286;-78
2022/12/19 22:11:49;;;;;;;21.33;19.07;;;5.50;99.90;;;;;;10371878;28;20218;-78
2022/12/19 22:16:51;;;;;;;23.37;20.73;;;5.50;99.90;;;;;;10379143;28;20213;-78
2022/12/19 22:21:53;;;;;;;21.77;19.07;;;5.50;99.90;;;;;;10359937;28;20214;-78
2022/12/19 22:26:57;;;;;;;20.17;17.20;;;5.50;99.90;;;;;;10348760;28;20200;-78
2022/12/19 22:31:59;;;;;;;21.53;18.30;;;5.50;99.90;;;;;;10352580;28;20237;-78
2022/12/19 22:37:01;;;;;;;22.53;20.17;;;5.50;99.90;;;;;;10375387;28;20213;-77
2022/12/19 22:42:04;;;;;;;25.57;19.23;;;5.50;99.90;;;;;;10356523;28;20218;-78
2022/12/19 22:47:06;;;;;;;30.73;24.23;;;5.60;99.90;;;;;;10359357;28;20205;-78
2022/12/19 22:52:08;;;;;;;29.07;24.30;;;5.60;99.90;;;;;;10375594;28;20309;-78
2022/12/19 22:57:12;;;;;;;22.23;18.60;;;5.50;99.90;;;;;;10342625;28;20222;-78
2022/12/19 23:02:14;;;;;;;16.17;14.37;;;5.50;99.90;;;;;;10358654;28;20314;-78
2022/12/19 23:07:16;;;;;;;15.90;13.97;;;5.50;99.90;;;;;;10372455;28;20197;-79
2022/12/19 23:12:20;;;;;;;13.40;12.03;;;5.50;99.90;;;;;;10346773;28;20225;-78
2022/12/19 23:17:22;;;;;;;12.63;11.50;;;5.50;99.90;;;;;;10357656;28;20218;-78
2022/12/19 23:22:24;;;;;;;12.97;11.67;;;5.50;99.90;;;;;;10352620;28;20269;-77
2022/12/19 23:27:27;;;;;;;12.47;11.23;;;5.50;99.90;;;;;;10374827;28;20219;-77
2022/12/19 23:32:29;;;;;;;11.50;10.40;;;5.50;99.90;;;;;;10375112;28;20214;-77
2022/12/19 23:37:31;;;;;;;11.90;10.20;;;5.50;99.90;;;;;;10366929;28;20218;-78
2022/12/19 23:42:34;;;;;;;12.23;11.13;;;5.50;99.90;;;;;;10366762;28;20317;-77
2022/12/19 23:47:37;;;;;;;12.07;10.90;;;5.40;99.90;;;;;;10368969;28;20195;-78
2022/12/19 23:52:39;;;;;;;12.53;11.23;;;5.40;99.90;;;;;;10386654;28;20302;-78
2022/12/19 23:57:42;;;;;;;13.30;11.90;;;5.30;99.90;;;;;;10383903;28;20218;-78
